createdAt,value
2019-03-05T00:01:25.450Z,9.31
2019-03-05T00:03:55.353Z,9.98
2019-03-05T00:06:25.269Z,10.27
2019-03-05T00:08:55.259Z,10.26
2019-03-05T00:11:25.160Z,9.49
2019-03-05T00:13:55.445Z,9.82
2019-03-05T00:16:25.335Z,10.15
2019-03-05T00:18:55.821Z,9.60
2019-03-05T00:21:25.776Z,9.88
2019-03-05T00:24:17.423Z,10.48
2019-03-05T00:26:48.188Z,10.53
2019-03-05T00:30:21.796Z,10.47
2019-03-05T00:33:00.792Z,9.77
2019-03-05T00:35:58.861Z,10.11
2019-03-05T00:39:01.107Z,10.28
2019-03-05T00:42:05.199Z,10.04
2019-03-05T00:45:34.668Z,10.33
2019-03-05T00:48:49.966Z,10.08
2019-03-05T00:52:15.812Z,10.04
2019-03-05T00:55:46.315Z,10.07
2019-03-05T00:58:25.930Z,10.67
2019-03-05T01:01:38.931Z,10.86
2019-03-05T01:05:24.110Z,9.88
2019-03-05T01:07:54.250Z,10.18
2019-03-05T01:10:24.913Z,10.11
2019-03-05T01:12:55.237Z,10.59
2019-03-05T01:15:25.346Z,9.73
2019-03-05T01:17:55.326Z,10.03
2019-03-05T01:20:25.345Z,9.96
2019-03-05T01:22:55.365Z,9.12
2019-03-05T01:25:31.400Z,9.94
2019-03-05T01:28:01.722Z,9.74
2019-03-05T01:30:58.315Z,10.13
2019-03-05T01:33:31.574Z,9.78
2019-03-05T01:36:06.327Z,9.74
2019-03-05T01:38:46.167Z,10.18
2019-03-05T01:41:16.166Z,10.23
2019-03-05T01:43:46.311Z,9.74
2019-03-05T01:46:16.400Z,9.77
2019-03-05T01:48:46.346Z,10.04
2019-03-05T01:51:16.289Z,9.67
2019-03-05T01:53:46.166Z,9.73
2019-03-05T01:56:16.101Z,10.09
2019-03-05T01:58:45.984Z,9.88
2019-03-05T02:01:16.178Z,9.80
2019-03-05T02:03:46.299Z,8.66
2019-03-05T02:06:16.501Z,9.26
2019-03-05T02:08:46.674Z,9.65
2019-03-05T02:11:17.791Z,9.96
2019-03-05T02:13:48.138Z,8.87
2019-03-05T02:16:18.278Z,10.08
2019-03-05T02:18:48.203Z,9.50
2019-03-05T02:21:18.512Z,9.65
2019-03-05T02:24:58.203Z,8.91
2019-03-05T02:27:52.828Z,9.48
2019-03-05T02:30:39.204Z,9.57
2019-03-05T02:33:27.518Z,9.36
2019-03-05T02:36:39.018Z,9.09
2019-03-05T02:40:05.630Z,9.69
2019-03-05T02:43:38.657Z,10.13
2019-03-05T02:46:59.056Z,10.03
2019-03-05T02:50:32.001Z,9.70
2019-03-05T02:53:30.673Z,10.18
2019-03-05T02:56:38.083Z,9.87
2019-03-05T03:02:05.509Z,10.28
2019-03-05T03:04:39.724Z,9.85
2019-03-05T03:07:10.013Z,9.78
2019-03-05T03:10:19.313Z,10.28
2019-03-05T03:12:49.345Z,9.93
2019-03-05T03:15:20.148Z,10.64
2019-03-05T03:17:51.442Z,10.59
2019-03-05T03:20:23.022Z,10.30
2019-03-05T03:22:53.479Z,10.56
2019-03-05T03:25:25.115Z,10.58
2019-03-05T03:27:55.358Z,10.03
2019-03-05T03:30:27.315Z,9.00
2019-03-05T03:32:57.428Z,10.02
2019-03-05T03:35:27.813Z,10.46
2019-03-05T03:37:57.712Z,10.06
2019-03-05T03:40:27.718Z,10.28
2019-03-05T03:42:58.103Z,10.43
2019-03-05T03:45:28.661Z,9.71
2019-03-05T03:47:58.788Z,10.18
2019-03-05T03:50:28.981Z,9.85
2019-03-05T03:52:59.230Z,9.88
2019-03-05T03:55:29.268Z,9.88
2019-03-05T03:57:59.511Z,10.05
2019-03-05T04:00:29.571Z,9.71
2019-03-05T04:02:59.524Z,9.50
2019-03-05T04:05:29.441Z,9.31
2019-03-05T04:07:59.522Z,9.15
2019-03-05T04:10:29.408Z,9.01
2019-03-05T04:12:59.311Z,9.32
2019-03-05T04:15:29.240Z,9.48
2019-03-05T04:17:59.187Z,9.20
2019-03-05T04:20:38.869Z,8.97
2019-03-05T04:23:09.133Z,9.84
2019-03-05T04:25:39.017Z,8.83
2019-03-05T04:28:09.418Z,9.18
2019-03-05T04:30:39.424Z,8.86
2019-03-05T04:33:09.939Z,9.72
2019-03-05T04:35:39.824Z,9.43
2019-03-05T04:38:09.767Z,9.54
2019-03-05T04:40:40.384Z,8.99
2019-03-05T04:43:10.702Z,8.99
2019-03-05T04:45:45.931Z,10.02
2019-03-05T04:48:16.356Z,9.80
2019-03-05T04:51:23.283Z,9.15
2019-03-05T04:53:53.316Z,8.88
2019-03-05T04:56:23.222Z,9.12
2019-03-05T04:58:53.157Z,9.69
2019-03-05T05:01:23.638Z,9.43
2019-03-05T05:03:53.769Z,9.60
2019-03-05T05:06:23.956Z,9.24
2019-03-05T05:08:53.862Z,9.37
2019-03-05T05:11:23.786Z,9.57
2019-03-05T05:13:55.190Z,9.40
2019-03-05T05:16:25.172Z,9.47
2019-03-05T05:18:55.103Z,9.14
2019-03-05T05:21:24.983Z,9.30
2019-03-05T05:23:55.232Z,8.62
2019-03-05T05:26:25.170Z,9.51
2019-03-05T05:28:55.061Z,8.57
2019-03-05T05:31:24.975Z,9.13
2019-03-05T05:33:54.894Z,8.94
2019-03-05T05:36:25.626Z,9.65
2019-03-05T05:38:55.635Z,9.41
2019-03-05T05:41:25.592Z,8.67
2019-03-05T05:43:55.523Z,8.86
2019-03-05T05:46:25.495Z,8.70
2019-03-05T05:48:57.229Z,8.47
2019-03-05T05:51:27.393Z,9.14
2019-03-05T05:53:57.287Z,9.30
2019-03-05T05:56:27.182Z,8.93
2019-03-05T05:58:57.117Z,9.16
2019-03-05T06:01:27.648Z,9.34
2019-03-05T06:03:57.604Z,8.96
2019-03-05T06:06:27.612Z,8.31
2019-03-05T06:08:57.493Z,9.18
2019-03-05T06:11:27.465Z,9.44
2019-03-05T06:13:57.367Z,9.80
2019-03-05T06:16:27.268Z,9.49
2019-03-05T06:18:57.189Z,9.63
2019-03-05T06:21:27.592Z,9.34
2019-03-05T06:23:57.482Z,9.60
2019-03-05T06:26:27.469Z,9.54
2019-03-05T06:28:57.383Z,9.13
2019-03-05T06:31:27.345Z,8.67
2019-03-05T06:33:57.283Z,9.69
2019-03-05T06:36:28.731Z,9.79
2019-03-05T06:38:59.037Z,9.18
2019-03-05T06:41:29.162Z,9.41
2019-03-05T06:43:59.418Z,9.62
2019-03-05T06:46:29.346Z,9.20
2019-03-05T06:48:59.279Z,9.91
2019-03-05T06:51:29.651Z,9.89
2019-03-05T06:53:59.810Z,10.22
2019-03-05T06:56:29.949Z,9.53
2019-03-05T06:59:00.093Z,10.32
2019-03-05T07:01:30.267Z,9.52
2019-03-05T07:04:00.430Z,9.83
2019-03-05T07:06:57.243Z,10.29
2019-03-05T07:09:57.536Z,9.97
2019-03-05T07:12:59.898Z,9.57
2019-03-05T07:16:13.482Z,9.94
2019-03-05T07:18:57.480Z,9.79
2019-03-05T07:22:02.955Z,10.08
2019-03-05T07:24:47.799Z,10.60
2019-03-05T07:27:36.804Z,9.54
2019-03-05T07:30:27.043Z,10.67
2019-03-05T07:32:58.909Z,9.74
2019-03-05T07:35:30.740Z,9.36
2019-03-05T07:38:01.009Z,9.63
2019-03-05T07:40:33.184Z,9.77
2019-03-05T07:43:03.425Z,10.68
2019-03-05T07:45:33.461Z,10.64
2019-03-05T07:48:03.447Z,10.17
2019-03-05T07:50:33.407Z,10.26
2019-03-05T07:53:03.682Z,10.87
2019-03-05T07:55:33.724Z,11.22
2019-03-05T07:58:03.692Z,10.70
2019-03-05T08:00:33.715Z,10.92
2019-03-05T08:03:03.854Z,11.25
2019-03-05T08:05:33.912Z,11.61
2019-03-05T08:08:58.776Z,11.24
2019-03-05T08:11:31.677Z,11.17
2019-03-05T08:14:37.829Z,10.84
2019-03-05T08:17:08.410Z,10.98
2019-03-05T08:19:39.091Z,10.24
2019-03-05T08:22:09.854Z,10.67
2019-03-05T08:24:40.103Z,11.54
2019-03-05T08:27:10.339Z,11.42
2019-03-05T08:29:40.733Z,11.15
2019-03-05T08:32:11.403Z,11.44
2019-03-05T08:34:41.371Z,10.15
2019-03-05T08:37:13.322Z,10.92
2019-03-05T08:39:43.311Z,10.86
2019-03-05T08:42:14.211Z,11.26
2019-03-05T08:44:50.415Z,10.18
2019-03-05T08:47:16.678Z,10.81
2019-03-05T08:49:46.977Z,11.43
2019-03-05T08:52:17.511Z,11.87
2019-03-05T08:54:47.580Z,10.93
2019-03-05T08:57:17.704Z,10.93
2019-03-05T08:59:47.995Z,11.01
2019-03-05T09:02:18.179Z,10.69
2019-03-05T09:04:48.243Z,10.25
2019-03-05T09:07:18.564Z,10.90
2019-03-05T09:09:48.470Z,10.89
2019-03-05T09:12:18.614Z,11.11
2019-03-05T09:14:48.660Z,10.98
2019-03-05T09:17:19.403Z,10.59
2019-03-05T09:19:49.485Z,11.51
2019-03-05T09:22:19.470Z,11.11
2019-03-05T09:24:49.496Z,10.63
2019-03-05T09:27:19.497Z,11.25
2019-03-05T09:29:49.674Z,10.73
2019-03-05T09:32:19.692Z,11.37
2019-03-05T09:34:49.972Z,10.61
2019-03-05T09:37:19.891Z,10.88
2019-03-05T09:39:49.881Z,10.49
2019-03-05T09:42:20.339Z,10.54
2019-03-05T09:44:50.325Z,10.44
2019-03-05T09:47:20.491Z,10.38
2019-03-05T09:49:50.641Z,10.53
2019-03-05T09:52:20.588Z,10.44
2019-03-05T09:54:50.717Z,10.33
2019-03-05T09:57:21.104Z,10.08
2019-03-05T09:59:51.076Z,10.04
2019-03-05T10:02:21.369Z,10.02
2019-03-05T10:04:51.265Z,10.08
2019-03-05T10:07:21.204Z,9.99
2019-03-05T10:09:51.113Z,10.23
2019-03-05T10:12:21.354Z,10.58
2019-03-05T10:14:51.418Z,10.46
2019-03-05T10:17:21.327Z,10.66
2019-03-05T10:19:51.675Z,10.89
2019-03-05T10:22:21.582Z,10.75
2019-03-05T10:24:52.069Z,10.75
2019-03-05T10:27:22.138Z,11.43
2019-03-05T10:29:52.500Z,11.10
2019-03-05T10:32:22.475Z,10.73
2019-03-05T10:34:52.493Z,10.49
2019-03-05T10:37:22.805Z,11.02
2019-03-05T10:39:53.043Z,11.19
2019-03-05T10:42:23.142Z,10.99
2019-03-05T10:44:53.174Z,10.71
2019-03-05T10:47:23.207Z,10.97
2019-03-05T10:49:53.316Z,10.88
2019-03-05T10:52:23.402Z,10.60
2019-03-05T10:54:53.881Z,11.42
2019-03-05T10:57:24.153Z,11.64
2019-03-05T10:59:54.068Z,11.47
2019-03-05T11:02:24.123Z,11.12
2019-03-05T11:04:56.620Z,10.87
2019-03-05T11:07:26.677Z,11.56
2019-03-05T11:09:57.036Z,12.06
2019-03-05T11:12:27.485Z,11.28
2019-03-05T11:14:57.393Z,11.04
2019-03-05T11:17:27.432Z,11.32
2019-03-05T11:19:57.575Z,11.68
2019-03-05T11:22:27.650Z,11.61
2019-03-05T11:24:57.588Z,11.82
2019-03-05T11:27:27.543Z,12.42
2019-03-05T11:29:57.700Z,11.76
2019-03-05T11:32:27.614Z,12.05
2019-03-05T11:34:57.640Z,11.48
2019-03-05T11:37:27.803Z,11.56
2019-03-05T11:39:58.080Z,11.80
2019-03-05T11:42:28.217Z,12.16
2019-03-05T11:45:07.101Z,12.08
2019-03-05T11:47:30.299Z,11.94
2019-03-05T11:50:00.336Z,12.33
2019-03-05T11:52:30.395Z,11.97
2019-03-05T11:55:00.345Z,12.38
2019-03-05T11:57:30.367Z,11.66
2019-03-05T12:00:00.451Z,11.40
2019-03-05T12:02:30.430Z,11.27
2019-03-05T12:05:00.367Z,10.74
2019-03-05T12:07:30.280Z,11.41
2019-03-05T12:10:00.406Z,11.70
2019-03-05T12:12:30.813Z,11.72
2019-03-05T12:15:00.885Z,11.50
2019-03-05T12:17:31.098Z,11.69
2019-03-05T12:20:01.062Z,11.05
2019-03-05T12:22:31.477Z,11.62
2019-03-05T12:25:03.655Z,11.11
2019-03-05T12:27:35.802Z,11.08
2019-03-05T12:30:05.926Z,10.86
2019-03-05T12:32:35.972Z,10.99
2019-03-05T12:35:07.047Z,11.33
2019-03-05T12:37:36.995Z,11.22
2019-03-05T12:40:08.705Z,11.81
2019-03-05T12:42:39.075Z,11.33
2019-03-05T12:45:10.337Z,11.74
2019-03-05T12:47:40.391Z,11.52
2019-03-05T12:50:15.201Z,11.32
2019-03-05T12:52:46.187Z,12.02
2019-03-05T12:55:16.696Z,11.75
2019-03-05T12:57:46.860Z,12.42
2019-03-05T13:00:21.585Z,11.73
2019-03-05T13:02:51.913Z,12.05
2019-03-05T13:05:22.244Z,11.69
2019-03-05T13:07:55.940Z,10.47
2019-03-05T13:10:24.440Z,10.52
2019-03-05T13:12:54.547Z,10.88
2019-03-05T13:15:27.985Z,11.31
2019-03-05T13:17:58.005Z,10.89
2019-03-05T13:20:27.903Z,11.66
2019-03-05T13:22:57.894Z,11.97
2019-03-05T13:25:28.683Z,11.35
2019-03-05T13:28:02.063Z,11.88
2019-03-05T13:30:32.518Z,12.03
2019-03-05T13:33:02.498Z,12.28
2019-03-05T13:35:32.723Z,11.25
2019-03-05T13:38:06.906Z,11.74
2019-03-05T13:40:38.360Z,11.41
2019-03-05T13:43:07.300Z,11.45
2019-03-05T13:45:37.493Z,11.47
2019-03-05T13:48:58.418Z,11.58
2019-03-05T13:52:28.141Z,11.57
2019-03-05T13:55:51.947Z,11.72
2019-03-05T13:59:09.211Z,12.17
2019-03-05T14:01:39.445Z,11.84
2019-03-05T14:04:16.716Z,10.81
2019-03-05T14:07:58.130Z,11.69
2019-03-05T14:10:34.927Z,11.82
2019-03-05T14:13:05.417Z,11.04
2019-03-05T14:15:38.488Z,10.85
2019-03-05T14:18:08.964Z,11.01
2019-03-05T14:20:38.913Z,11.23
2019-03-05T14:23:09.210Z,12.04
2019-03-05T14:25:45.298Z,11.21
2019-03-05T14:28:15.533Z,11.95
2019-03-05T14:30:45.890Z,11.87
2019-03-05T14:33:17.893Z,11.22
2019-03-05T14:35:51.522Z,11.76
2019-03-05T14:38:23.766Z,12.09
2019-03-05T14:41:00.322Z,11.53
2019-03-05T14:43:30.674Z,11.52
2019-03-05T14:46:01.378Z,11.98
2019-03-05T14:48:31.436Z,11.83
2019-03-05T14:51:01.456Z,11.33
2019-03-05T14:53:37.496Z,12.20
2019-03-05T14:56:08.366Z,11.57
2019-03-05T14:58:38.704Z,11.66
2019-03-05T15:01:31.312Z,11.94
2019-03-05T15:04:01.721Z,11.10
2019-03-05T15:06:32.366Z,11.69
2019-03-05T15:09:02.512Z,11.60
2019-03-05T15:11:32.881Z,11.33
2019-03-05T15:14:03.431Z,12.10
2019-03-05T15:16:38.611Z,11.96
2019-03-05T15:19:20.573Z,11.99
2019-03-05T15:21:41.184Z,11.58
2019-03-05T15:24:17.860Z,11.41
2019-03-05T15:26:48.229Z,11.28
2019-03-05T15:29:18.585Z,10.95
2019-03-05T15:31:48.855Z,11.30
2019-03-05T15:34:19.083Z,11.91
2019-03-05T15:36:52.140Z,11.90
2019-03-05T15:39:22.797Z,11.98
2019-03-05T15:41:53.078Z,11.58
2019-03-05T15:44:23.396Z,11.36
2019-03-05T15:46:53.796Z,11.25
2019-03-05T15:52:17.143Z,10.81
2019-03-05T15:54:47.425Z,10.96
2019-03-05T15:57:26.340Z,10.11
2019-03-05T16:00:07.860Z,10.88
2019-03-05T16:02:38.586Z,11.26
2019-03-05T16:05:31.194Z,11.41
2019-03-05T16:08:25.130Z,11.20
2019-03-05T16:14:16.201Z,11.10
2019-03-05T16:19:53.608Z,10.88
2019-03-05T16:22:24.558Z,10.59
2019-03-05T16:25:05.982Z,8.87
2019-03-05T16:27:39.972Z,8.53
2019-03-05T16:30:51.863Z,7.98
2019-03-05T16:33:41.832Z,8.08
2019-03-05T16:36:37.661Z,7.88
2019-03-05T16:39:27.440Z,8.27
2019-03-05T16:42:11.031Z,8.66
2019-03-05T16:45:55.053Z,9.28
2019-03-05T16:52:14.566Z,9.30
2019-03-05T16:55:17.772Z,9.51
2019-03-05T17:02:25.909Z,9.52
2019-03-05T17:10:01.701Z,9.34
2019-03-05T18:00:39.136Z,8.72
2019-03-05T18:03:32.611Z,8.60
2019-03-05T18:06:30.450Z,8.78
2019-03-05T18:13:11.808Z,9.29
2019-03-05T18:23:47.279Z,9.32
2019-03-05T18:29:18.333Z,9.42
2019-03-05T18:32:19.107Z,9.41
2019-03-05T18:38:05.848Z,9.50
2019-03-05T18:40:40.343Z,9.33
2019-03-05T18:43:18.257Z,9.35
2019-03-05T18:45:49.336Z,9.08
2019-03-05T18:48:19.663Z,9.49
2019-03-05T18:50:58.134Z,9.00
2019-03-05T18:53:29.355Z,9.56
2019-03-05T18:56:11.569Z,9.58
2019-03-05T18:58:44.563Z,9.02
2019-03-05T19:01:14.622Z,9.31
2019-03-05T19:03:57.029Z,9.57
2019-03-05T19:06:27.700Z,9.27
2019-03-05T19:09:01.609Z,9.49
2019-03-05T19:11:33.634Z,9.42
2019-03-05T19:14:04.631Z,9.39
2019-03-05T19:16:34.666Z,9.27
2019-03-05T19:19:05.091Z,9.49
2019-03-05T19:21:35.692Z,9.29
2019-03-05T19:24:09.350Z,9.48
2019-03-05T19:26:41.269Z,9.57
2019-03-05T19:29:11.483Z,9.41
2019-03-05T19:31:41.671Z,9.53
2019-03-05T19:34:11.968Z,8.70
2019-03-05T19:36:42.246Z,9.09
2019-03-05T19:39:15.069Z,8.61
2019-03-05T19:41:45.683Z,9.19
2019-03-05T19:44:15.693Z,8.60
2019-03-05T19:46:45.568Z,8.72
2019-03-05T19:49:15.960Z,9.20
2019-03-05T19:51:46.079Z,8.13
2019-03-05T19:54:16.140Z,9.07
2019-03-05T19:56:46.140Z,9.25
2019-03-05T19:59:16.476Z,8.56
2019-03-05T20:01:48.759Z,8.56
2019-03-05T20:04:18.626Z,8.82
2019-03-05T20:06:48.756Z,9.19
2019-03-05T20:09:21.638Z,8.72
2019-03-05T20:11:51.513Z,8.81
2019-03-05T20:14:21.834Z,8.83
2019-03-05T20:16:51.733Z,9.23
2019-03-05T20:19:21.928Z,9.09
2019-03-05T20:21:51.933Z,8.61
2019-03-05T20:24:22.015Z,8.41
2019-03-05T20:26:52.021Z,9.19
2019-03-05T20:29:21.938Z,9.12
2019-03-05T20:31:52.412Z,9.21
2019-03-05T20:34:22.354Z,8.00
2019-03-05T20:36:52.243Z,8.30
2019-03-05T20:39:22.142Z,8.81
2019-03-05T20:41:52.057Z,8.83
2019-03-05T20:44:22.003Z,7.81
2019-03-05T20:46:51.921Z,7.81
2019-03-05T20:49:21.866Z,7.33
2019-03-05T20:51:51.864Z,8.48
2019-03-05T20:54:21.798Z,7.81
2019-03-05T20:56:51.735Z,7.68
2019-03-05T20:59:22.338Z,7.55
2019-03-05T21:01:52.484Z,8.09
2019-03-05T21:04:22.482Z,8.24
2019-03-05T21:06:52.464Z,8.63
2019-03-05T21:09:26.323Z,8.17
2019-03-05T21:11:56.237Z,8.12
2019-03-05T21:14:26.605Z,7.65
2019-03-05T21:16:56.660Z,7.53
2019-03-05T21:19:26.651Z,8.16
2019-03-05T21:21:56.582Z,7.58
2019-03-05T21:24:26.733Z,8.00
2019-03-05T21:26:56.705Z,8.04
2019-03-05T21:29:26.628Z,8.52
2019-03-05T21:31:56.551Z,7.55
2019-03-05T21:34:26.469Z,8.20
2019-03-05T21:36:56.419Z,8.50
2019-03-05T21:39:26.438Z,7.75
2019-03-05T21:41:56.586Z,8.64
2019-03-05T21:44:26.691Z,8.93
2019-03-05T21:46:56.768Z,8.36
2019-03-05T21:49:27.176Z,8.51
2019-03-05T21:51:57.334Z,8.39
2019-03-05T21:54:27.505Z,8.85
2019-03-05T21:56:57.610Z,9.00
2019-03-05T21:59:27.638Z,8.96
2019-03-05T22:01:57.626Z,8.82
2019-03-05T22:04:28.024Z,8.76
2019-03-05T22:06:58.157Z,8.83
2019-03-05T22:09:28.464Z,8.84
2019-03-05T22:11:58.477Z,7.92
2019-03-05T22:14:28.865Z,8.60
2019-03-05T22:16:58.807Z,8.66
2019-03-05T22:19:28.655Z,8.43
2019-03-05T22:21:58.850Z,8.54
2019-03-05T22:24:29.719Z,7.97
2019-03-05T22:26:59.750Z,8.39
2019-03-05T22:29:29.669Z,8.47
2019-03-05T22:31:59.880Z,7.99
2019-03-05T22:34:30.064Z,7.25
2019-03-05T22:36:59.975Z,7.61
2019-03-05T22:39:29.881Z,8.52
2019-03-05T22:41:59.800Z,8.32
2019-03-05T22:44:29.773Z,7.72
2019-03-05T22:46:59.976Z,8.21
2019-03-05T22:49:30.093Z,8.12
2019-03-05T22:52:01.103Z,8.57
2019-03-05T22:54:31.528Z,7.05
2019-03-05T22:57:01.628Z,8.07
2019-03-05T22:59:32.238Z,7.88
2019-03-05T23:02:02.208Z,8.38
2019-03-05T23:04:38.993Z,8.43
2019-03-05T23:07:09.712Z,7.60
2019-03-05T23:09:39.631Z,8.16
2019-03-05T23:12:10.212Z,7.76
2019-03-05T23:14:40.166Z,7.12
2019-03-05T23:17:10.280Z,7.67
2019-03-05T23:19:40.165Z,6.73
2019-03-05T23:22:10.325Z,8.16
2019-03-05T23:24:40.453Z,7.28
2019-03-05T23:27:10.398Z,8.13
2019-03-05T23:29:45.699Z,7.84
2019-03-05T23:32:18.564Z,8.45
2019-03-05T23:34:48.834Z,7.92
2019-03-05T23:37:18.902Z,7.94
2019-03-05T23:39:48.989Z,7.92
2019-03-05T23:42:19.011Z,7.82
2019-03-05T23:44:48.910Z,7.58
2019-03-05T23:47:19.122Z,7.75
2019-03-05T23:49:49.124Z,7.88
2019-03-05T23:52:19.236Z,8.58
2019-03-05T23:54:49.148Z,8.05
2019-03-05T23:57:19.120Z,8.00
2019-03-05T23:59:49.182Z,6.80
